sensor_id;sensor_type;location;lat;lon;timestamp;P1;durP1;ratioP1;P2;durP2;ratioP2
15788;SDS011;59075;50.670;6.474;2022-11-20T06:02:04;715.07;;;660.47;;
15788;SDS011;59075;50.670;6.474;2022-11-20T06:04:30;709.33;;;655.10;;
15788;SDS011;59075;50.670;6.474;2022-11-20T06:06:57;723.90;;;669.10;;
15788;SDS011;59075;50.670;6.474;2022-11-20T06:09:24;711.13;;;656.63;;
15788;SDS011;59075;50.670;6.474;2022-11-20T06:11:50;719.87;;;665.07;;
15788;SDS011;59075;50.670;6.474;2022-11-20T06:14:17;722.20;;;667.13;;
15788;SDS011;59075;50.670;6.474;2022-11-20T06:16:44;725.80;;;671.13;;
15788;SDS011;59075;50.670;6.474;2022-11-20T06:19:12;724.97;;;670.10;;
15788;SDS011;59075;50.670;6.474;2022-11-20T06:21:38;723.63;;;668.83;;
15788;SDS011;59075;50.670;6.474;2022-11-20T06:24:05;713.43;;;658.83;;
15788;SDS011;59075;50.670;6.474;2022-11-20T06:26:32;724.30;;;669.20;;
15788;SDS011;59075;50.670;6.474;2022-11-20T06:28:59;728.03;;;673.10;;
15788;SDS011;59075;50.670;6.474;2022-11-20T06:31:26;726.87;;;671.93;;
15788;SDS011;59075;50.670;6.474;2022-11-20T06:33:53;721.10;;;666.30;;
15788;SDS011;59075;50.670;6.474;2022-11-20T06:36:21;714.10;;;659.57;;
15788;SDS011;59075;50.670;6.474;2022-11-20T06:38:49;715.77;;;661.13;;
15788;SDS011;59075;50.670;6.474;2022-11-20T06:41:17;708.17;;;653.70;;
15788;SDS011;59075;50.670;6.474;2022-11-20T06:43:44;716.13;;;661.33;;
15788;SDS011;59075;50.670;6.474;2022-11-20T06:46:12;708.70;;;654.20;;
15788;SDS011;59075;50.670;6.474;2022-11-20T06:48:42;719.13;;;664.17;;
15788;SDS011;59075;50.670;6.474;2022-11-20T06:51:09;700.80;;;646.67;;
15788;SDS011;59075;50.670;6.474;2022-11-20T06:53:37;720.70;;;665.83;;
15788;SDS011;59075;50.670;6.474;2022-11-20T06:56:04;706.63;;;652.30;;
15788;SDS011;59075;50.670;6.474;2022-11-20T06:58:32;726.27;;;671.27;;
15788;SDS011;59075;50.670;6.474;2022-11-20T07:01:00;719.90;;;665.17;;
15788;SDS011;59075;50.670;6.474;2022-11-20T07:03:28;718.73;;;663.90;;
15788;SDS011;59075;50.670;6.474;2022-11-20T07:05:55;722.13;;;667.33;;
15788;SDS011;59075;50.670;6.474;2022-11-20T07:08:23;713.97;;;659.40;;
15788;SDS011;59075;50.670;6.474;2022-11-20T07:10:51;710.87;;;656.30;;
15788;SDS011;59075;50.670;6.474;2022-11-20T07:13:19;712.97;;;658.33;;
15788;SDS011;59075;50.670;6.474;2022-11-20T07:15:46;734.10;;;677.90;;
15788;SDS011;59075;50.670;6.474;2022-11-20T07:18:12;713.60;;;658.97;;
15788;SDS011;59075;50.670;6.474;2022-11-20T07:20:39;720.13;;;665.27;;
15788;SDS011;59075;50.670;6.474;2022-11-20T07:23:06;712.40;;;657.73;;
15788;SDS011;59075;50.670;6.474;2022-11-20T07:25:32;715.63;;;660.73;;
15788;SDS011;59075;50.670;6.474;2022-11-20T07:28:00;705.87;;;651.57;;
15788;SDS011;59075;50.670;6.474;2022-11-20T07:30:27;705.60;;;651.23;;
15788;SDS011;59075;50.670;6.474;2022-11-20T07:32:54;710.53;;;656.03;;
15788;SDS011;59075;50.670;6.474;2022-11-20T07:35:21;711.57;;;656.90;;
15788;SDS011;59075;50.670;6.474;2022-11-20T07:37:48;702.53;;;648.27;;
15788;SDS011;59075;50.670;6.474;2022-11-20T07:40:15;720.17;;;665.20;;
15788;SDS011;59075;50.670;6.474;2022-11-20T07:42:46;706.17;;;651.67;;
15788;SDS011;59075;50.670;6.474;2022-11-20T07:45:15;710.93;;;656.27;;
15788;SDS011;59075;50.670;6.474;2022-11-20T07:47:42;704.83;;;650.67;;
15788;SDS011;59075;50.670;6.474;2022-11-20T07:50:09;716.73;;;662.13;;
15788;SDS011;59075;50.670;6.474;2022-11-20T07:52:36;710.87;;;655.90;;
15788;SDS011;59075;50.670;6.474;2022-11-20T07:55:03;717.83;;;663.13;;
15788;SDS011;59075;50.670;6.474;2022-11-20T07:57:30;722.23;;;667.20;;
15788;SDS011;59075;50.670;6.474;2022-11-20T07:59:57;703.77;;;649.43;;
15788;SDS011;59075;50.670;6.474;2022-11-20T08:02:25;713.97;;;659.30;;
15788;SDS011;59075;50.670;6.474;2022-11-20T08:04:52;706.57;;;652.00;;
15788;SDS011;59075;50.670;6.474;2022-11-20T08:07:19;703.63;;;649.30;;
15788;SDS011;59075;50.670;6.474;2022-11-20T08:09:45;716.53;;;661.90;;
15788;SDS011;59075;50.670;6.474;2022-11-20T08:12:16;715.73;;;661.13;;
15788;SDS011;59075;50.670;6.474;2022-11-20T08:15:03;705.17;;;650.33;;
15788;SDS011;59075;50.670;6.474;2022-11-20T08:17:32;712.90;;;658.40;;
15788;SDS011;59075;50.670;6.474;2022-11-20T08:19:58;696.50;;;642.43;;
15788;SDS011;59075;50.670;6.474;2022-11-20T08:22:25;696.70;;;642.60;;
15788;SDS011;59075;50.670;6.474;2022-11-20T08:24:52;684.37;;;630.50;;
15788;SDS011;59075;50.670;6.474;2022-11-20T08:27:18;692.47;;;638.33;;
15788;SDS011;59075;50.670;6.474;2022-11-20T08:29:45;717.57;;;662.33;;
15788;SDS011;59075;50.670;6.474;2022-11-20T08:32:12;705.77;;;651.30;;
15788;SDS011;59075;50.670;6.474;2022-11-20T08:34:40;713.47;;;658.87;;
15788;SDS011;59075;50.670;6.474;2022-11-20T08:37:06;716.97;;;662.40;;
15788;SDS011;59075;50.670;6.474;2022-11-20T08:39:33;701.17;;;646.70;;
15788;SDS011;59075;50.670;6.474;2022-11-20T08:42:00;694.47;;;640.60;;
15788;SDS011;59075;50.670;6.474;2022-11-20T08:44:27;713.17;;;658.53;;
15788;SDS011;59075;50.670;6.474;2022-11-20T08:46:54;712.43;;;657.93;;
15788;SDS011;59075;50.670;6.474;2022-11-20T08:49:20;713.97;;;659.57;;
15788;SDS011;59075;50.670;6.474;2022-11-20T08:51:49;712.17;;;657.40;;
15788;SDS011;59075;50.670;6.474;2022-11-20T08:54:18;707.83;;;653.37;;
15788;SDS011;59075;50.670;6.474;2022-11-20T08:56:46;711.60;;;656.90;;
15788;SDS011;59075;50.670;6.474;2022-11-20T08:59:13;714.70;;;659.97;;
15788;SDS011;59075;50.670;6.474;2022-11-20T09:01:40;711.83;;;657.17;;
15788;SDS011;59075;50.670;6.474;2022-11-20T09:04:07;701.40;;;646.97;;
15788;SDS011;59075;50.670;6.474;2022-11-20T09:06:34;717.50;;;662.87;;
15788;SDS011;59075;50.670;6.474;2022-11-20T09:09:02;715.53;;;660.80;;
15788;SDS011;59075;50.670;6.474;2022-11-20T09:11:29;719.20;;;664.47;;
15788;SDS011;59075;50.670;6.474;2022-11-20T09:13:55;704.87;;;650.43;;
15788;SDS011;59075;50.670;6.474;2022-11-20T09:16:22;722.57;;;667.83;;
15788;SDS011;59075;50.670;6.474;2022-11-20T09:18:49;707.70;;;653.30;;
15788;SDS011;59075;50.670;6.474;2022-11-20T09:21:16;729.70;;;674.50;;
15788;SDS011;59075;50.670;6.474;2022-11-20T09:23:42;714.73;;;659.70;;
15788;SDS011;59075;50.670;6.474;2022-11-20T09:26:12;724.30;;;668.77;;
15788;SDS011;59075;50.670;6.474;2022-11-20T09:28:39;714.63;;;659.83;;
15788;SDS011;59075;50.670;6.474;2022-11-20T09:31:07;710.57;;;656.03;;
15788;SDS011;59075;50.670;6.474;2022-11-20T09:33:35;708.00;;;653.47;;
15788;SDS011;59075;50.670;6.474;2022-11-20T09:36:02;709.87;;;655.37;;
15788;SDS011;59075;50.670;6.474;2022-11-20T09:38:29;717.40;;;662.87;;
15788;SDS011;59075;50.670;6.474;2022-11-20T09:40:57;712.87;;;658.53;;
15788;SDS011;59075;50.670;6.474;2022-11-20T09:43:32;713.80;;;659.13;;
15788;SDS011;59075;50.670;6.474;2022-11-20T09:46:13;710.97;;;656.53;;
15788;SDS011;59075;50.670;6.474;2022-11-20T09:48:48;704.10;;;649.90;;
15788;SDS011;59075;50.670;6.474;2022-11-20T09:51:27;701.50;;;647.33;;
15788;SDS011;59075;50.670;6.474;2022-11-20T09:54:13;708.73;;;654.13;;
15788;SDS011;59075;50.670;6.474;2022-11-20T09:56:44;706.20;;;651.97;;
15788;SDS011;59075;50.670;6.474;2022-11-20T09:59:18;707.07;;;652.40;;
15788;SDS011;59075;50.670;6.474;2022-11-20T10:01:55;709.00;;;654.53;;
15788;SDS011;59075;50.670;6.474;2022-11-20T10:04:22;707.73;;;653.23;;
15788;SDS011;59075;50.670;6.474;2022-11-20T10:06:52;711.33;;;656.73;;
15788;SDS011;59075;50.670;6.474;2022-11-20T10:09:27;720.03;;;665.47;;
15788;SDS011;59075;50.670;6.474;2022-11-20T10:12:01;713.87;;;659.17;;
15788;SDS011;59075;50.670;6.474;2022-11-20T10:14:49;694.40;;;640.33;;
15788;SDS011;59075;50.670;6.474;2022-11-20T10:17:25;722.27;;;667.50;;
15788;SDS011;59075;50.670;6.474;2022-11-20T10:20:02;715.13;;;660.67;;
15788;SDS011;59075;50.670;6.474;2022-11-20T10:22:43;695.90;;;641.87;;
15788;SDS011;59075;50.670;6.474;2022-11-20T10:25:18;716.13;;;661.53;;
15788;SDS011;59075;50.670;6.474;2022-11-20T10:27:58;705.37;;;650.97;;
15788;SDS011;59075;50.670;6.474;2022-11-20T10:30:39;698.53;;;644.57;;
15788;SDS011;59075;50.670;6.474;2022-11-20T10:33:11;706.60;;;652.33;;
15788;SDS011;59075;50.670;6.474;2022-11-20T10:35:44;740.50;;;684.30;;
15788;SDS011;59075;50.670;6.474;2022-11-20T10:38:16;713.30;;;658.83;;
15788;SDS011;59075;50.670;6.474;2022-11-20T10:40:48;709.17;;;654.80;;
15788;SDS011;59075;50.670;6.474;2022-11-20T10:43:19;713.70;;;659.10;;
15788;SDS011;59075;50.670;6.474;2022-11-20T10:45:53;726.20;;;670.50;;
15788;SDS011;59075;50.670;6.474;2022-11-20T10:48:24;732.27;;;677.10;;
15788;SDS011;59075;50.670;6.474;2022-11-20T10:50:55;722.77;;;667.83;;
15788;SDS011;59075;50.670;6.474;2022-11-20T10:53:33;720.07;;;665.27;;
15788;SDS011;59075;50.670;6.474;2022-11-20T10:56:20;710.20;;;655.80;;
15788;SDS011;59075;50.670;6.474;2022-11-20T10:59:02;704.53;;;650.27;;
15788;SDS011;59075;50.670;6.474;2022-11-20T11:01:40;712.50;;;658.00;;
15788;SDS011;59075;50.670;6.474;2022-11-20T11:04:14;708.87;;;654.57;;
15788;SDS011;59075;50.670;6.474;2022-11-20T11:06:52;694.53;;;640.67;;
15788;SDS011;59075;50.670;6.474;2022-11-20T11:09:26;697.40;;;643.37;;
15788;SDS011;59075;50.670;6.474;2022-11-20T11:11:58;704.10;;;649.70;;
15788;SDS011;59075;50.670;6.474;2022-11-20T11:14:25;712.53;;;657.63;;
15788;SDS011;59075;50.670;6.474;2022-11-20T11:16:54;710.33;;;654.80;;
15788;SDS011;59075;50.670;6.474;2022-11-20T11:19:22;698.00;;;643.80;;
15788;SDS011;59075;50.670;6.474;2022-11-20T11:21:49;698.47;;;643.93;;
15788;SDS011;59075;50.670;6.474;2022-11-20T11:24:19;698.13;;;643.37;;
15788;SDS011;59075;50.670;6.474;2022-11-20T11:26:52;711.80;;;656.70;;
15788;SDS011;59075;50.670;6.474;2022-11-20T11:29:22;721.13;;;666.13;;
15788;SDS011;59075;50.670;6.474;2022-11-20T11:32:02;721.60;;;666.30;;
15788;SDS011;59075;50.670;6.474;2022-11-20T11:34:29;721.40;;;666.30;;
15788;SDS011;59075;50.670;6.474;2022-11-20T11:36:57;713.97;;;659.13;;
15788;SDS011;59075;50.670;6.474;2022-11-20T11:39:26;703.33;;;648.57;;
15788;SDS011;59075;50.670;6.474;2022-11-20T11:41:54;716.70;;;661.63;;
15788;SDS011;59075;50.670;6.474;2022-11-20T11:44:22;722.87;;;667.57;;
15788;SDS011;59075;50.670;6.474;2022-11-20T11:47:15;720.93;;;665.37;;
15788;SDS011;59075;50.670;6.474;2022-11-20T11:49:47;714.63;;;660.00;;
15788;SDS011;59075;50.670;6.474;2022-11-20T11:52:15;724.57;;;669.20;;
15788;SDS011;59075;50.670;6.474;2022-11-20T11:54:45;713.43;;;658.57;;
15788;SDS011;59075;50.670;6.474;2022-11-20T11:57:17;710.40;;;655.40;;
15788;SDS011;59075;50.670;6.474;2022-11-20T11:59:57;725.90;;;670.63;;
15788;SDS011;59075;50.670;6.474;2022-11-20T12:02:36;718.80;;;663.93;;
15788;SDS011;59075;50.670;6.474;2022-11-20T12:05:10;721.80;;;666.30;;
15788;SDS011;59075;50.670;6.474;2022-11-20T12:07:45;716.33;;;661.13;;
15788;SDS011;59075;50.670;6.474;2022-11-20T12:10:16;721.83;;;666.93;;
15788;SDS011;59075;50.670;6.474;2022-11-20T12:12:47;719.83;;;665.07;;
15788;SDS011;59075;50.670;6.474;2022-11-20T12:15:21;723.30;;;668.07;;
15788;SDS011;59075;50.670;6.474;2022-11-20T12:17:56;728.60;;;673.23;;
15788;SDS011;59075;50.670;6.474;2022-11-20T12:20:24;723.07;;;667.77;;
15788;SDS011;59075;50.670;6.474;2022-11-20T12:22:55;727.47;;;672.07;;
15788;SDS011;59075;50.670;6.474;2022-11-20T12:25:28;725.43;;;669.73;;
15788;SDS011;59075;50.670;6.474;2022-11-20T12:28:09;719.17;;;663.87;;
15788;SDS011;59075;50.670;6.474;2022-11-20T12:30:48;706.50;;;652.10;;
15788;SDS011;59075;50.670;6.474;2022-11-20T12:36:27;706.27;;;651.17;;
15788;SDS011;59075;50.670;6.474;2022-11-20T12:42:10;725.80;;;670.67;;
15788;SDS011;59075;50.670;6.474;2022-11-20T12:48:19;728.30;;;672.97;;
15788;SDS011;59075;50.670;6.474;2022-11-20T12:51:05;732.03;;;676.67;;
15788;SDS011;59075;50.670;6.474;2022-11-20T12:53:44;734.13;;;678.60;;
15788;SDS011;59075;50.670;6.474;2022-11-20T12:56:24;725.83;;;670.80;;
15788;SDS011;59075;50.670;6.474;2022-11-20T12:59:07;729.20;;;673.83;;
15788;SDS011;59075;50.670;6.474;2022-11-20T13:01:49;729.30;;;673.93;;
15788;SDS011;59075;50.670;6.474;2022-11-20T13:04:22;745.43;;;689.77;;
15788;SDS011;59075;50.670;6.474;2022-11-20T13:07:07;745.07;;;689.27;;
15788;SDS011;59075;50.670;6.474;2022-11-20T13:09:39;749.50;;;693.43;;
15788;SDS011;59075;50.670;6.474;2022-11-20T13:12:08;742.30;;;686.67;;
15788;SDS011;59075;50.670;6.474;2022-11-20T13:14:41;744.77;;;688.93;;
15788;SDS011;59075;50.670;6.474;2022-11-20T13:17:13;736.47;;;680.83;;
15788;SDS011;59075;50.670;6.474;2022-11-20T13:19:47;753.33;;;697.03;;
15788;SDS011;59075;50.670;6.474;2022-11-20T13:22:24;742.30;;;686.77;;
15788;SDS011;59075;50.670;6.474;2022-11-20T13:24:52;754.93;;;698.90;;
15788;SDS011;59075;50.670;6.474;2022-11-20T13:27:20;751.90;;;695.87;;
15788;SDS011;59075;50.670;6.474;2022-11-20T13:29:58;752.93;;;696.27;;
15788;SDS011;59075;50.670;6.474;2022-11-20T13:32:27;759.53;;;703.13;;
15788;SDS011;59075;50.670;6.474;2022-11-20T13:34:57;754.37;;;698.30;;
15788;SDS011;59075;50.670;6.474;2022-11-20T13:37:31;751.03;;;695.03;;
15788;SDS011;59075;50.670;6.474;2022-11-20T13:43:02;771.67;;;714.60;;
15788;SDS011;59075;50.670;6.474;2022-11-20T13:45:42;748.60;;;692.43;;
15788;SDS011;59075;50.670;6.474;2022-11-20T13:48:22;752.33;;;696.30;;
15788;SDS011;59075;50.670;6.474;2022-11-20T13:50:55;769.60;;;713.07;;
15788;SDS011;59075;50.670;6.474;2022-11-20T13:53:36;763.03;;;706.70;;
15788;SDS011;59075;50.670;6.474;2022-11-20T13:56:20;768.40;;;711.93;;
15788;SDS011;59075;50.670;6.474;2022-11-20T13:58:53;779.23;;;722.20;;
15788;SDS011;59075;50.670;6.474;2022-11-20T14:01:29;777.23;;;720.33;;
15788;SDS011;59075;50.670;6.474;2022-11-20T14:03:57;782.03;;;725.03;;
15788;SDS011;59075;50.670;6.474;2022-11-20T14:06:25;781.10;;;724.10;;
15788;SDS011;59075;50.670;6.474;2022-11-20T14:08:55;784.83;;;727.70;;
15788;SDS011;59075;50.670;6.474;2022-11-20T14:11:23;770.23;;;713.47;;
15788;SDS011;59075;50.670;6.474;2022-11-20T14:13:54;772.93;;;716.17;;
15788;SDS011;59075;50.670;6.474;2022-11-20T14:16:23;767.40;;;710.73;;
15788;SDS011;59075;50.670;6.474;2022-11-20T14:18:51;780.00;;;723.20;;
15788;SDS011;59075;50.670;6.474;2022-11-20T14:21:22;776.70;;;719.70;;
15788;SDS011;59075;50.670;6.474;2022-11-20T14:23:51;778.73;;;721.70;;
15788;SDS011;59075;50.670;6.474;2022-11-20T14:26:20;776.67;;;719.43;;
15788;SDS011;59075;50.670;6.474;2022-11-20T14:28:47;786.03;;;728.87;;
15788;SDS011;59075;50.670;6.474;2022-11-20T14:31:18;768.13;;;711.63;;
15788;SDS011;59075;50.670;6.474;2022-11-20T14:33:50;788.03;;;730.70;;
15788;SDS011;59075;50.670;6.474;2022-11-20T14:36:18;773.27;;;716.57;;
15788;SDS011;59075;50.670;6.474;2022-11-20T14:38:48;786.10;;;728.37;;
15788;SDS011;59075;50.670;6.474;2022-11-20T14:41:16;773.23;;;716.43;;
15788;SDS011;59075;50.670;6.474;2022-11-20T14:43:46;781.87;;;724.87;;
15788;SDS011;59075;50.670;6.474;2022-11-20T14:46:17;783.27;;;726.23;;
15788;SDS011;59075;50.670;6.474;2022-11-20T14:48:45;777.77;;;721.20;;
15788;SDS011;59075;50.670;6.474;2022-11-20T14:51:23;780.33;;;723.40;;
15788;SDS011;59075;50.670;6.474;2022-11-20T14:53:54;773.40;;;717.00;;
15788;SDS011;59075;50.670;6.474;2022-11-20T14:56:21;782.37;;;725.57;;
15788;SDS011;59075;50.670;6.474;2022-11-20T14:58:56;784.80;;;727.73;;
15788;SDS011;59075;50.670;6.474;2022-11-20T15:01:27;790.00;;;732.90;;
15788;SDS011;59075;50.670;6.474;2022-11-20T15:03:59;773.73;;;717.23;;
15788;SDS011;59075;50.670;6.474;2022-11-20T15:06:27;774.73;;;718.00;;
15788;SDS011;59075;50.670;6.474;2022-11-20T15:08:54;788.07;;;730.33;;
15788;SDS011;59075;50.670;6.474;2022-11-20T15:11:23;779.43;;;722.77;;
15788;SDS011;59075;50.670;6.474;2022-11-20T15:13:54;768.50;;;711.97;;
15788;SDS011;59075;50.670;6.474;2022-11-20T15:16:22;777.13;;;720.20;;
15788;SDS011;59075;50.670;6.474;2022-11-20T15:18:51;787.30;;;730.27;;
15788;SDS011;59075;50.670;6.474;2022-11-20T15:21:19;784.23;;;727.43;;
15788;SDS011;59075;50.670;6.474;2022-11-20T15:23:46;777.70;;;720.93;;
15788;SDS011;59075;50.670;6.474;2022-11-20T15:26:14;789.77;;;732.83;;
15788;SDS011;59075;50.670;6.474;2022-11-20T15:28:45;775.67;;;719.10;;
15788;SDS011;59075;50.670;6.474;2022-11-20T15:31:15;781.43;;;724.00;;
15788;SDS011;59075;50.670;6.474;2022-11-20T15:33:45;782.77;;;725.67;;
15788;SDS011;59075;50.670;6.474;2022-11-20T15:36:12;773.43;;;716.53;;
15788;SDS011;59075;50.670;6.474;2022-11-20T15:38:38;776.90;;;720.27;;
15788;SDS011;59075;50.670;6.474;2022-11-20T15:41:05;776.83;;;720.37;;
15788;SDS011;59075;50.670;6.474;2022-11-20T15:43:32;784.37;;;727.47;;
15788;SDS011;59075;50.670;6.474;2022-11-20T15:45:59;785.83;;;728.67;;
15788;SDS011;59075;50.670;6.474;2022-11-20T15:48:27;781.20;;;724.17;;
15788;SDS011;59075;50.670;6.474;2022-11-20T15:51:00;771.23;;;714.43;;
15788;SDS011;59075;50.670;6.474;2022-11-20T15:53:29;782.33;;;725.43;;
15788;SDS011;59075;50.670;6.474;2022-11-20T15:55:56;782.30;;;725.37;;
15788;SDS011;59075;50.670;6.474;2022-11-20T15:58:23;776.13;;;719.57;;
15788;SDS011;59075;50.670;6.474;2022-11-20T16:00:49;784.27;;;727.23;;
15788;SDS011;59075;50.670;6.474;2022-11-20T16:03:17;776.60;;;720.00;;
15788;SDS011;59075;50.670;6.474;2022-11-20T16:05:44;795.97;;;737.67;;
15788;SDS011;59075;50.670;6.474;2022-11-20T16:08:12;788.67;;;731.63;;
15788;SDS011;59075;50.670;6.474;2022-11-20T16:10:39;787.37;;;730.33;;
15788;SDS011;59075;50.670;6.474;2022-11-20T16:13:09;778.33;;;721.63;;
15788;SDS011;59075;50.670;6.474;2022-11-20T16:15:57;791.73;;;734.43;;
15788;SDS011;59075;50.670;6.474;2022-11-20T16:18:25;773.60;;;717.03;;
15788;SDS011;59075;50.670;6.474;2022-11-20T16:20:52;778.27;;;721.70;;
15788;SDS011;59075;50.670;6.474;2022-11-20T16:23:21;779.40;;;722.53;;
15788;SDS011;59075;50.670;6.474;2022-11-20T16:25:48;780.60;;;723.10;;
15788;SDS011;59075;50.670;6.474;2022-11-20T16:28:16;796.57;;;739.33;;
15788;SDS011;59075;50.670;6.474;2022-11-20T16:30:43;785.77;;;728.57;;
15788;SDS011;59075;50.670;6.474;2022-11-20T16:33:11;796.50;;;739.23;;
15788;SDS011;59075;50.670;6.474;2022-11-20T16:35:38;787.00;;;728.97;;
15788;SDS011;59075;50.670;6.474;2022-11-20T16:38:05;788.70;;;731.57;;
15788;SDS011;59075;50.670;6.474;2022-11-20T16:40:33;794.60;;;737.27;;
15788;SDS011;59075;50.670;6.474;2022-11-20T16:43:06;783.60;;;726.63;;
15788;SDS011;59075;50.670;6.474;2022-11-20T16:45:34;789.50;;;732.20;;
15788;SDS011;59075;50.670;6.474;2022-11-20T16:48:05;799.80;;;742.40;;
15788;SDS011;59075;50.670;6.474;2022-11-20T16:50:32;786.97;;;729.87;;
15788;SDS011;59075;50.670;6.474;2022-11-20T16:52:58;794.60;;;737.17;;
15788;SDS011;59075;50.670;6.474;2022-11-20T16:55:25;788.57;;;731.43;;
15788;SDS011;59075;50.670;6.474;2022-11-20T16:57:53;792.20;;;734.83;;
15788;SDS011;59075;50.670;6.474;2022-11-20T17:00:20;789.47;;;732.03;;
15788;SDS011;59075;50.670;6.474;2022-11-20T17:02:46;788.87;;;731.90;;
15788;SDS011;59075;50.670;6.474;2022-11-20T17:05:14;785.37;;;728.37;;
15788;SDS011;59075;50.670;6.474;2022-11-20T17:07:41;782.00;;;725.00;;
15788;SDS011;59075;50.670;6.474;2022-11-20T17:10:08;784.37;;;727.53;;
15788;SDS011;59075;50.670;6.474;2022-11-20T17:12:34;789.87;;;732.63;;
15788;SDS011;59075;50.670;6.474;2022-11-20T17:15:03;790.33;;;733.17;;
15788;SDS011;59075;50.670;6.474;2022-11-20T17:17:30;784.90;;;728.00;;
15788;SDS011;59075;50.670;6.474;2022-11-20T17:19:56;795.20;;;737.87;;
15788;SDS011;59075;50.670;6.474;2022-11-20T17:22:23;792.03;;;734.90;;
15788;SDS011;59075;50.670;6.474;2022-11-20T17:24:50;788.00;;;731.07;;
15788;SDS011;59075;50.670;6.474;2022-11-20T17:27:16;785.60;;;728.63;;
15788;SDS011;59075;50.670;6.474;2022-11-20T17:29:43;801.13;;;743.50;;
15788;SDS011;59075;50.670;6.474;2022-11-20T17:32:11;789.43;;;732.37;;
15788;SDS011;59075;50.670;6.474;2022-11-20T17:34:39;792.57;;;735.30;;
15788;SDS011;59075;50.670;6.474;2022-11-20T17:37:05;791.27;;;734.10;;
15788;SDS011;59075;50.670;6.474;2022-11-20T17:39:32;785.93;;;728.80;;
15788;SDS011;59075;50.670;6.474;2022-11-20T17:41:59;788.47;;;731.60;;
15788;SDS011;59075;50.670;6.474;2022-11-20T17:44:42;779.17;;;722.37;;
15788;SDS011;59075;50.670;6.474;2022-11-20T17:47:12;802.60;;;744.87;;
15788;SDS011;59075;50.670;6.474;2022-11-20T17:49:38;776.33;;;719.60;;
15788;SDS011;59075;50.670;6.474;2022-11-20T17:52:05;798.40;;;740.93;;
15788;SDS011;59075;50.670;6.474;2022-11-20T17:54:32;793.13;;;735.83;;
15788;SDS011;59075;50.670;6.474;2022-11-20T17:56:59;780.93;;;724.17;;
15788;SDS011;59075;50.670;6.474;2022-11-20T17:59:43;788.00;;;731.00;;
15788;SDS011;59075;50.670;6.474;2022-11-20T18:02:09;781.20;;;724.33;;
15788;SDS011;59075;50.670;6.474;2022-11-20T18:04:38;788.67;;;731.83;;
15788;SDS011;59075;50.670;6.474;2022-11-20T18:07:04;789.03;;;732.07;;
15788;SDS011;59075;50.670;6.474;2022-11-20T18:09:31;782.83;;;726.03;;
15788;SDS011;59075;50.670;6.474;2022-11-20T18:11:58;791.77;;;734.70;;
15788;SDS011;59075;50.670;6.474;2022-11-20T18:14:24;790.20;;;733.27;;
15788;SDS011;59075;50.670;6.474;2022-11-20T18:16:53;799.10;;;741.50;;
15788;SDS011;59075;50.670;6.474;2022-11-20T18:19:23;804.67;;;747.10;;
15788;SDS011;59075;50.670;6.474;2022-11-20T18:21:51;794.13;;;736.73;;
15788;SDS011;59075;50.670;6.474;2022-11-20T18:24:18;800.63;;;743.03;;
15788;SDS011;59075;50.670;6.474;2022-11-20T18:26:45;790.33;;;733.27;;
15788;SDS011;59075;50.670;6.474;2022-11-20T18:29:12;793.77;;;736.70;;
15788;SDS011;59075;50.670;6.474;2022-11-20T18:31:41;803.67;;;746.13;;
15788;SDS011;59075;50.670;6.474;2022-11-20T18:34:08;806.77;;;748.80;;
15788;SDS011;59075;50.670;6.474;2022-11-20T18:36:38;812.47;;;754.53;;
15788;SDS011;59075;50.670;6.474;2022-11-20T18:39:05;809.60;;;751.67;;
15788;SDS011;59075;50.670;6.474;2022-11-20T18:41:32;786.13;;;729.20;;
15788;SDS011;59075;50.670;6.474;2022-11-20T18:44:17;806.87;;;748.67;;
15788;SDS011;59075;50.670;6.474;2022-11-20T18:47:03;790.83;;;733.67;;
15788;SDS011;59075;50.670;6.474;2022-11-20T18:49:30;797.63;;;740.30;;
15788;SDS011;59075;50.670;6.474;2022-11-20T18:51:58;811.83;;;753.83;;
15788;SDS011;59075;50.670;6.474;2022-11-20T18:54:25;802.20;;;744.50;;
15788;SDS011;59075;50.670;6.474;2022-11-20T18:56:52;790.70;;;733.43;;
15788;SDS011;59075;50.670;6.474;2022-11-20T18:59:19;807.43;;;749.77;;
15788;SDS011;59075;50.670;6.474;2022-11-20T19:01:46;802.43;;;744.90;;
15788;SDS011;59075;50.670;6.474;2022-11-20T19:04:14;799.27;;;741.77;;
15788;SDS011;59075;50.670;6.474;2022-11-20T19:06:43;796.07;;;738.50;;
15788;SDS011;59075;50.670;6.474;2022-11-20T19:09:14;789.37;;;732.23;;
15788;SDS011;59075;50.670;6.474;2022-11-20T19:11:41;805.70;;;748.07;;
15788;SDS011;59075;50.670;6.474;2022-11-20T19:14:08;809.57;;;751.73;;
15788;SDS011;59075;50.670;6.474;2022-11-20T19:16:38;806.10;;;748.53;;
15788;SDS011;59075;50.670;6.474;2022-11-20T19:19:05;806.63;;;748.90;;
15788;SDS011;59075;50.670;6.474;2022-11-20T19:21:32;807.20;;;749.53;;
15788;SDS011;59075;50.670;6.474;2022-11-20T19:23:59;795.67;;;738.10;;
15788;SDS011;59075;50.670;6.474;2022-11-20T19:26:28;805.63;;;747.67;;
15788;SDS011;59075;50.670;6.474;2022-11-20T19:28:55;809.73;;;751.70;;
15788;SDS011;59075;50.670;6.474;2022-11-20T19:31:23;797.93;;;740.37;;
15788;SDS011;59075;50.670;6.474;2022-11-20T19:33:52;793.70;;;736.37;;
15788;SDS011;59075;50.670;6.474;2022-11-20T19:36:20;794.80;;;737.37;;
15788;SDS011;59075;50.670;6.474;2022-11-20T19:38:49;791.03;;;733.77;;
15788;SDS011;59075;50.670;6.474;2022-11-20T19:41:17;805.67;;;747.77;;
15788;SDS011;59075;50.670;6.474;2022-11-20T19:43:46;789.80;;;732.63;;
15788;SDS011;59075;50.670;6.474;2022-11-20T19:46:14;790.10;;;733.13;;
15788;SDS011;59075;50.670;6.474;2022-11-20T19:48:42;797.40;;;739.97;;
15788;SDS011;59075;50.670;6.474;2022-11-20T19:51:08;801.57;;;743.97;;
15788;SDS011;59075;50.670;6.474;2022-11-20T19:53:36;804.23;;;746.40;;
15788;SDS011;59075;50.670;6.474;2022-11-20T19:56:03;793.50;;;736.30;;
15788;SDS011;59075;50.670;6.474;2022-11-20T19:58:31;800.13;;;742.40;;
15788;SDS011;59075;50.670;6.474;2022-11-20T20:01:05;800.80;;;743.40;;
15788;SDS011;59075;50.670;6.474;2022-11-20T20:03:32;798.03;;;740.67;;
15788;SDS011;59075;50.670;6.474;2022-11-20T20:06:00;809.40;;;751.33;;
15788;SDS011;59075;50.670;6.474;2022-11-20T20:08:27;806.77;;;748.70;;
15788;SDS011;59075;50.670;6.474;2022-11-20T20:10:54;799.50;;;741.97;;
15788;SDS011;59075;50.670;6.474;2022-11-20T20:13:21;809.20;;;751.23;;
15788;SDS011;59075;50.670;6.474;2022-11-20T20:15:48;811.50;;;752.57;;
15788;SDS011;59075;50.670;6.474;2022-11-20T20:18:17;809.63;;;751.80;;
15788;SDS011;59075;50.670;6.474;2022-11-20T20:20:43;801.13;;;743.30;;
15788;SDS011;59075;50.670;6.474;2022-11-20T20:23:10;806.00;;;747.90;;
15788;SDS011;59075;50.670;6.474;2022-11-20T20:25:37;803.57;;;745.23;;